createdAt,value
2023-03-06T00:01:23.653Z,78.22
2023-03-06T00:06:30.074Z,78.19
2023-03-06T00:11:33.416Z,78.21
2023-03-06T00:16:38.676Z,78.06
2023-03-06T00:21:42.556Z,78.03
2023-03-06T00:26:45.020Z,78.08
2023-03-06T00:31:48.227Z,77.88
2023-03-06T00:36:55.002Z,77.91
2023-03-06T00:41:57.978Z,77.98
2023-03-06T00:47:00.593Z,77.94
2023-03-06T00:52:06.388Z,77.92
2023-03-06T00:57:10.016Z,77.85
2023-03-06T01:02:14.566Z,77.85
2023-03-06T01:07:18.750Z,78.09
2023-03-06T01:12:23.503Z,78.07
2023-03-06T01:17:30.066Z,78.22
2023-03-06T01:22:32.659Z,78.13
2023-03-06T01:27:35.108Z,77.91
2023-03-06T01:32:37.712Z,77.85
2023-03-06T01:37:40.293Z,78.01
2023-03-06T01:42:42.721Z,77.78
2023-03-06T01:47:45.430Z,77.94
2023-03-06T01:52:52.259Z,77.88
2023-03-06T01:57:57.954Z,77.26
2023-03-06T02:03:10.487Z,77.95
2023-03-06T02:08:15.883Z,77.64
2023-03-06T02:13:18.075Z,77.81
2023-03-06T02:18:20.348Z,77.74
2023-03-06T02:23:34.520Z,77.76
2023-03-06T02:28:36.754Z,77.49
2023-03-06T02:33:38.929Z,77.59
2023-03-06T02:38:49.609Z,77.62
2023-03-06T02:43:53.124Z,77.68
2023-03-06T02:48:55.480Z,77.70
2023-03-06T02:53:57.629Z,77.78
2023-03-06T02:58:59.820Z,77.68
2023-03-06T03:04:03.083Z,77.83
2023-03-06T03:09:05.495Z,77.50
2023-03-06T03:14:07.752Z,77.69
2023-03-06T03:19:10.065Z,77.94
2023-03-06T03:24:13.105Z,77.52
2023-03-06T03:29:17.695Z,78.06
2023-03-06T03:34:20.065Z,77.87
2023-03-06T03:39:22.794Z,77.76
2023-03-06T03:44:25.052Z,78.14
2023-03-06T03:49:28.150Z,78.25
2023-03-06T03:54:30.544Z,78.33
2023-03-06T03:59:33.323Z,78.06
2023-03-06T04:04:49.217Z,78.30
2023-03-06T04:09:51.853Z,78.28
2023-03-06T04:14:54.624Z,78.34
2023-03-06T04:19:57.686Z,78.09
2023-03-06T04:25:00.176Z,78.10
2023-03-06T04:30:02.753Z,78.02
2023-03-06T04:35:07.309Z,78.16
2023-03-06T04:40:19.848Z,78.54
2023-03-06T04:45:22.348Z,78.16
2023-03-06T04:50:25.411Z,77.82
2023-03-06T04:55:28.228Z,78.17
2023-03-06T05:00:33.227Z,78.12
2023-03-06T05:05:35.415Z,78.37
2023-03-06T05:10:37.632Z,78.40
2023-03-06T05:15:43.108Z,78.44
2023-03-06T05:20:45.593Z,78.58
2023-03-06T05:25:47.795Z,78.25
2023-03-06T05:30:50.129Z,78.59
2023-03-06T05:35:52.623Z,78.56
2023-03-06T05:40:54.987Z,78.43
2023-03-06T05:46:05.480Z,78.70
2023-03-06T05:51:07.829Z,78.42
2023-03-06T05:56:10.647Z,78.27
2023-03-06T06:01:18.205Z,78.17
2023-03-06T06:06:20.382Z,78.18
2023-03-06T06:11:22.628Z,77.70
2023-03-06T06:16:24.841Z,78.00
2023-03-06T06:21:27.096Z,77.86
2023-03-06T06:26:29.405Z,77.29
2023-03-06T06:31:32.116Z,77.77
2023-03-06T06:36:34.817Z,77.58
2023-03-06T06:41:56.941Z,77.12
2023-03-06T06:47:21.707Z,77.21
2023-03-06T06:52:22.839Z,77.22
2023-03-06T06:57:25.021Z,77.32
2023-03-06T07:02:29.365Z,77.37
2023-03-06T07:07:34.470Z,76.78
2023-03-06T07:12:37.541Z,77.30
2023-03-06T07:17:39.826Z,77.19
2023-03-06T07:22:50.931Z,77.09
2023-03-06T07:27:57.357Z,76.82
2023-03-06T07:33:00.267Z,77.09
2023-03-06T07:38:02.527Z,76.83
2023-03-06T07:43:18.416Z,76.99
2023-03-06T07:48:26.454Z,76.49
2023-03-06T07:53:29.445Z,76.68
2023-03-06T07:58:55.365Z,76.52
2023-03-06T08:04:10.995Z,76.27
2023-03-06T08:09:21.736Z,76.06
2023-03-06T08:14:29.640Z,75.75
2023-03-06T08:19:34.963Z,75.53
2023-03-06T08:24:39.031Z,75.57
2023-03-06T08:29:41.487Z,75.38
2023-03-06T08:34:45.756Z,75.54
2023-03-06T08:39:48.035Z,75.70
2023-03-06T08:44:50.830Z,75.86
2023-03-06T08:49:53.217Z,75.32
2023-03-06T08:54:55.521Z,75.57
2023-03-06T08:59:57.907Z,75.60
2023-03-06T09:05:01.565Z,75.82
2023-03-06T09:10:05.968Z,75.76
2023-03-06T09:15:09.277Z,75.49
2023-03-06T09:20:12.559Z,75.29
2023-03-06T09:25:20.390Z,75.62
2023-03-06T09:30:22.769Z,75.57
2023-03-06T09:35:25.095Z,75.47
2023-03-06T09:41:02.570Z,76.03
2023-03-06T09:46:30.246Z,76.10
2023-03-06T09:51:46.697Z,76.13
2023-03-06T09:56:50.157Z,75.67
2023-03-06T10:02:15.355Z,76.15
2023-03-06T10:07:23.106Z,76.36
2023-03-06T10:12:28.824Z,75.97
2023-03-06T10:17:36.051Z,76.04
2023-03-06T10:22:43.719Z,76.38
2023-03-06T10:27:59.802Z,76.67
2023-03-06T10:33:16.232Z,76.56
2023-03-06T10:38:48.860Z,76.15
2023-03-06T10:44:00.394Z,75.90
2023-03-06T10:49:07.126Z,75.79
2023-03-06T10:54:12.381Z,75.98
2023-03-06T10:59:28.463Z,75.76
2023-03-06T11:04:35.876Z,75.78
2023-03-06T11:09:38.536Z,75.53
2023-03-06T11:14:43.338Z,75.29
2023-03-06T11:19:45.498Z,75.03
2023-03-06T11:24:51.961Z,74.07
2023-03-06T11:29:55.834Z,73.67
2023-03-06T11:35:02.563Z,72.78
2023-03-06T11:40:11.442Z,72.37
2023-03-06T11:45:37.582Z,71.58
2023-03-06T11:50:54.391Z,70.96
2023-03-06T11:56:06.020Z,69.92
2023-03-06T12:01:28.550Z,70.10
2023-03-06T12:06:46.022Z,70.40
2023-03-06T12:12:00.255Z,70.29
2023-03-06T12:17:09.941Z,69.61
2023-03-06T12:22:31.340Z,70.51
2023-03-06T12:27:58.502Z,69.51
2023-03-06T12:33:15.902Z,69.47
2023-03-06T12:38:27.183Z,69.36
2023-03-06T12:43:32.399Z,69.48
2023-03-06T12:48:36.819Z,69.11
2023-03-06T12:53:40.816Z,69.12
2023-03-06T12:58:51.945Z,68.64
2023-03-06T13:04:30.801Z,68.03
2023-03-06T13:09:57.547Z,66.55
2023-03-06T13:15:01.433Z,67.93
2023-03-06T13:20:27.862Z,66.73
2023-03-06T13:25:50.365Z,68.15
2023-03-06T13:30:53.355Z,68.17
2023-03-06T13:36:27.937Z,66.50
2023-03-06T13:41:33.399Z,67.02
2023-03-06T13:46:38.549Z,67.23
2023-03-06T13:52:02.887Z,67.44
2023-03-06T13:57:21.208Z,67.43
2023-03-06T14:02:55.036Z,67.05
2023-03-06T14:08:25.157Z,66.27
2023-03-06T14:13:41.883Z,67.00
2023-03-06T14:18:51.496Z,67.39
2023-03-06T14:24:04.280Z,67.04
2023-03-06T14:29:22.444Z,67.20
2023-03-06T14:34:27.247Z,67.53
2023-03-06T14:39:40.893Z,67.53
2023-03-06T14:44:43.213Z,68.28
2023-03-06T14:49:45.600Z,68.23
2023-03-06T14:54:49.936Z,68.51
2023-03-06T14:59:57.004Z,67.96
2023-03-06T15:05:18.844Z,68.59
2023-03-06T15:10:24.093Z,69.45
2023-03-06T15:15:29.656Z,70.30
2023-03-06T15:20:48.433Z,71.03
2023-03-06T15:25:58.602Z,71.15
2023-03-06T15:31:10.927Z,70.66
2023-03-06T15:36:21.412Z,71.31
2023-03-06T15:41:30.571Z,70.99
2023-03-06T15:46:32.856Z,71.05
2023-03-06T15:51:35.072Z,71.04
2023-03-06T15:56:40.048Z,71.12
2023-03-06T16:01:46.086Z,70.73
2023-03-06T16:06:49.033Z,71.17
2023-03-06T16:11:51.262Z,71.19
2023-03-06T16:16:55.144Z,71.13
2023-03-06T16:21:57.732Z,71.71
2023-03-06T16:27:01.739Z,71.28
2023-03-06T16:32:05.514Z,71.96
2023-03-06T16:37:13.985Z,71.95
2023-03-06T16:42:17.915Z,71.66
2023-03-06T16:47:20.112Z,72.04
2023-03-06T16:52:22.322Z,72.03
2023-03-06T16:57:24.738Z,72.17
2023-03-06T17:02:26.974Z,72.01
2023-03-06T17:07:29.771Z,72.21
2023-03-06T17:12:32.167Z,72.42
2023-03-06T17:17:34.906Z,72.07
2023-03-06T17:22:39.025Z,72.32
2023-03-06T17:27:42.590Z,72.52
2023-03-06T17:32:44.870Z,72.40
2023-03-06T17:37:54.279Z,72.34
2023-03-06T17:42:57.156Z,72.14
2023-03-06T17:48:26.611Z,72.41
2023-03-06T18:00:53.063Z,72.32
2023-03-06T18:06:00.303Z,72.14
2023-03-06T18:11:04.475Z,72.45
2023-03-06T18:16:07.739Z,72.06
2023-03-06T18:21:12.508Z,72.19
2023-03-06T18:26:20.519Z,72.34
2023-03-06T18:31:28.990Z,72.40
2023-03-06T18:36:32.678Z,72.69
2023-03-06T18:41:35.304Z,72.51
2023-03-06T18:46:38.315Z,72.35
2023-03-06T18:51:40.604Z,72.46
2023-03-06T18:56:44.798Z,72.18
2023-03-06T19:01:47.527Z,72.33
2023-03-06T19:06:49.773Z,72.40
2023-03-06T19:11:54.472Z,72.63
2023-03-06T19:16:57.202Z,72.65
2023-03-06T19:21:59.659Z,72.69
2023-03-06T19:27:02.018Z,73.11
2023-03-06T19:32:04.504Z,73.07
2023-03-06T19:37:07.189Z,73.00
2023-03-06T19:42:11.722Z,72.70
2023-03-06T19:47:16.000Z,73.08
2023-03-06T19:52:18.536Z,72.51
2023-03-06T19:57:21.385Z,73.04
2023-03-06T20:02:26.809Z,73.24
2023-03-06T20:07:28.970Z,73.20
2023-03-06T20:12:32.882Z,73.17
2023-03-06T20:17:36.142Z,73.11
2023-03-06T20:22:38.808Z,73.02
2023-03-06T20:27:41.091Z,72.58
2023-03-06T20:32:43.366Z,73.24
2023-03-06T20:37:45.580Z,73.00
2023-03-06T20:42:47.833Z,73.41
2023-03-06T20:47:49.975Z,73.73
2023-03-06T20:52:58.774Z,74.03
2023-03-06T20:58:00.966Z,74.28
2023-03-06T21:03:03.522Z,73.80
2023-03-06T21:08:05.837Z,74.54
2023-03-06T21:13:08.446Z,74.25
2023-03-06T21:18:12.117Z,74.22
2023-03-06T21:23:14.472Z,73.97
2023-03-06T21:28:17.742Z,73.84
2023-03-06T21:33:20.990Z,73.99
2023-03-06T21:38:23.165Z,73.82
2023-03-06T21:43:25.481Z,73.72
2023-03-06T21:48:27.648Z,74.16
2023-03-06T21:53:29.876Z,73.98
2023-03-06T21:58:32.471Z,73.79
2023-03-06T22:03:34.649Z,73.86
2023-03-06T22:08:37.243Z,74.03
2023-03-06T22:13:39.643Z,73.72
2023-03-06T22:18:45.906Z,73.54
2023-03-06T22:23:52.526Z,74.15
2023-03-06T22:28:54.911Z,73.67
2023-03-06T22:33:59.477Z,73.93
2023-03-06T22:39:02.802Z,74.02
2023-03-06T22:44:05.455Z,74.03
2023-03-06T22:49:07.632Z,73.80
2023-03-06T22:54:10.390Z,73.69
2023-03-06T22:59:12.675Z,73.54
2023-03-06T23:04:14.919Z,73.49
2023-03-06T23:09:21.619Z,73.52
2023-03-06T23:14:43.860Z,73.38
2023-03-06T23:20:10.285Z,73.20
2023-03-06T23:25:31.095Z,73.30
2023-03-06T23:30:33.331Z,73.18
2023-03-06T23:35:36.939Z,73.33
2023-03-06T23:40:39.257Z,72.66
2023-03-06T23:45:41.593Z,72.95
2023-03-06T23:50:43.746Z,72.88
2023-03-06T23:55:47.850Z,72.91
